Sukran S — TCKB — position and weather

sailwx.info

Track history (hours):
 
Tides and Currents Weather Stations Pressure Air Temp Water Temp Dewpoint Dewpoint Depression Visibility Wind Speed Wind Dir Waves Ship Positions

Sukran S

Last reported at 2017-May-24 18:48 UTC. Time now 2017-May-28 22:20 UTC.
Position N 46°07' E 030°51'.

Length 108 m; draft 7.2 m.

Type: Cargo ship. MMSI: 271000056.

Date/timePositionNaut miles runAvg speedWind from/ knotsBaromVisibWave heightAir tempDewpointWater temp
2017-May-24 18:48N 46°07' E 030°51'3 9.6
2017-May-24 18:26N 46°10' E 030°52'4 9.4
2017-May-24 18:00N 46°14' E 030°54'5 9.3
2017-May-24 17:25N 46°20' E 030°55'4 9.3
2017-May-24 17:00N 46°24' E 030°55'5 9.2
2017-May-24 16:30N 46°28' E 030°55'5 8.4
2017-May-24 15:56N 46°33' E 030°58'6 8.2
2017-May-24 15:15N 46°35' E 031°05'18 8.5
2017-May-24 13:08N 46°35' E 031°32'1 8.5
2017-May-24 13:00N 46°35' E 031°33'4 8.5
2017-May-24 12:30N 46°36' E 031°39'4 8.8
2017-May-24 12:00N 46°36' E 031°45'4 8.7
2017-May-24 11:30N 46°37' E 031°52'4 8.4
2017-May-24 11:00N 46°40' E 031°56'4 8.7
2017-May-24 10:30N 46°44' E 031°55'4 8.5
2017-May-24 10:00N 46°48' E 031°53'3 6.2
2017-May-24 09:30N 46°50' E 031°57'0 0.1
2017-May-24 08:58N 46°50' E 031°57'0 0.0
2017-May-24 08:30N 46°50' E 031°57'0 0.0
2017-May-24 08:00N 46°50' E 031°57'0 0.0
2017-May-24 07:30N 46°50' E 031°57'0 0.0
2017-May-24 06:58N 46°50' E 031°57'0 0.0
2017-May-24 06:27N 46°50' E 031°57'0 0.0
2017-May-24 06:00N 46°50' E 031°57'0 0.0
2017-May-24 05:24N 46°50' E 031°57'0 0.0
2017-May-24 04:58N 46°50' E 031°57'0 0.0
2017-May-24 04:29N 46°50' E 031°57'0 0.0
2017-May-24 03:58N 46°50' E 031°57'0 0.0
2017-May-24 03:29N 46°50' E 031°57'0 0.0
2017-May-24 02:59N 46°50' E 031°57'0 0.0
2017-May-24 02:27N 46°50' E 031°57'0 0.0
2017-May-24 01:54N 46°50' E 031°57'0 0.0
2017-May-24 01:24N 46°50' E 031°57'0 0.0
2017-May-24 01:00N 46°50' E 031°57'0 0.0
2017-May-24 00:29N 46°50' E 031°57'0 0.0
2017-May-23 23:59N 46°50' E 031°57'0 0.0
2017-May-23 23:28N 46°50' E 031°57'0 0.0
2017-May-23 22:57N 46°50' E 031°57'0 0.0
2017-May-23 22:26N 46°50' E 031°57'0 0.0
2017-May-23 21:56N 46°50' E 031°57'0 0.0
2017-May-23 21:29N 46°50' E 031°57'0 0.0
2017-May-23 20:59N 46°50' E 031°57'0 0.0
2017-May-23 20:28N 46°50' E 031°57'0 0.0
2017-May-23 19:57N 46°50' E 031°57'0 0.0
2017-May-23 19:29N 46°50' E 031°57'0 0.0
2017-May-23 19:00N 46°50' E 031°57'0 0.0
2017-May-23 18:30N 46°50' E 031°57'0 0.0
2017-May-23 17:59N 46°50' E 031°57'0 0.0
2017-May-23 17:29N 46°50' E 031°57'0 0.0
2017-May-23 16:59N 46°50' E 031°57'0 0.0
2017-May-23 16:29N 46°50' E 031°57'0 0.0
2017-May-23 15:55N 46°50' E 031°57'0 0.0
2017-May-23 15:28N 46°50' E 031°57'0 0.0
2017-May-23 14:57N 46°50' E 031°57'0 0.0
2017-May-23 14:26N 46°50' E 031°57'0 0.0
2017-May-23 13:29N 46°50' E 031°57'0 0.0
2017-May-23 12:59N 46°50' E 031°57'0 0.0
2017-May-23 12:29N 46°50' E 031°57'0 0.0
2017-May-23 11:59N 46°50' E 031°57'0 0.0
2017-May-23 11:28N 46°50' E 031°57'0 0.0
2017-May-23 10:59N 46°50' E 031°57'0 0.0
2017-May-23 10:30N 46°50' E 031°57'0 0.0
2017-May-23 09:58N 46°50' E 031°57'0 0.0
2017-May-23 09:28N 46°50' E 031°57'0 0.0
2017-May-23 09:00N 46°50' E 031°57'0 0.0
2017-May-23 08:30N 46°50' E 031°57'0 0.0
2017-May-23 07:58N 46°50' E 031°57'0 0.0
2017-May-23 07:30N 46°50' E 031°57'0 0.0
2017-May-23 07:00N 46°50' E 031°57'0 0.0
2017-May-23 06:27N 46°50' E 031°57'0 0.0
2017-May-23 06:00N 46°50' E 031°57'0 0.0
2017-May-23 05:30N 46°50' E 031°57'0 0.0
2017-May-23 04:53N 46°50' E 031°57'0 0.0
2017-May-23 04:24N 46°50' E 031°57'0 0.0
2017-May-23 03:58N 46°50' E 031°57'0 0.0
2017-May-23 03:30N 46°50' E 031°57'0 0.0
2017-May-23 02:58N 46°50' E 031°57'0 0.0
2017-May-23 02:28N 46°50' E 031°57'0 0.0
2017-May-23 01:59N 46°50' E 031°57'0 0.0
2017-May-23 01:30N 46°50' E 031°57'0 0.0
2017-May-23 00:59N 46°50' E 031°57'0 0.0
2017-May-23 00:26N 46°50' E 031°57'0 0.0
2017-May-22 23:58N 46°50' E 031°57'0 0.0
2017-May-22 23:24N 46°50' E 031°57'0 0.0
2017-May-22 22:56N 46°50' E 031°57'0 0.0
2017-May-22 22:29N 46°50' E 031°57'0 0.0
2017-May-22 21:58N 46°50' E 031°57'0 0.0
2017-May-22 21:29N 46°50' E 031°57'0 0.0
2017-May-22 20:59N 46°50' E 031°57'0 0.0
2017-May-22 20:30N 46°50' E 031°57'0 0.0
2017-May-22 19:56N 46°50' E 031°57'0 0.0
2017-May-22 19:24N 46°50' E 031°57'0 0.0
2017-May-22 18:58N 46°50' E 031°57'0 0.0
2017-May-22 18:30N 46°50' E 031°57'0 0.0
2017-May-22 17:55N 46°50' E 031°57'0 0.0
2017-May-22 17:28N 46°50' E 031°57'0 0.0
2017-May-22 16:57N 46°50' E 031°57'0 0.0
2017-May-22 16:30N 46°50' E 031°57'0 0.0
2017-May-22 15:56N 46°50' E 031°57'0 0.0
2017-May-22 15:29N 46°50' E 031°57'0 0.0
2017-May-22 14:59N 46°50' E 031°57'0 0.0
2017-May-22 14:00N 46°50' E 031°57'0 0.0
2017-May-22 13:29N 46°50' E 031°57'0 0.0
2017-May-22 12:59N 46°50' E 031°57'0 0.0
2017-May-22 12:30N 46°50' E 031°57'0 0.0
2017-May-22 11:57N 46°50' E 031°57'0 0.0
2017-May-22 11:30N 46°50' E 031°57'0 0.0
2017-May-22 11:00N 46°50' E 031°57'0 0.0
2017-May-22 10:30N 46°50' E 031°57'0 0.0
2017-May-22 09:59N 46°50' E 031°57'0 0.0
2017-May-22 09:28N 46°50' E 031°57'0 0.0
2017-May-22 09:00N 46°50' E 031°57'0 0.2
2017-May-22 08:30N 46°50' E 031°57'1 2.8
2017-May-22 08:00N 46°50' E 031°55'4 8.6
2017-May-22 07:30N 46°45' E 031°54'5 9.5
2017-May-22 07:00N 46°41' E 031°56'5 9.8
2017-May-22 06:30N 46°37' E 031°52'510.4
2017-May-22 06:00N 46°36' E 031°44'510.5
2017-May-22 05:30N 46°35' E 031°37'27 9.9
2017-May-22 02:49N 46°32' E 030°59'3 6.4
2017-May-22 02:23N 46°30' E 030°57'3 6.8
2017-May-22 02:00N 46°27' E 030°57'7 8.2
2017-May-22 01:08N 46°21' E 031°02'  
Track history (hours):
 
Tides and Currents Weather Stations Pressure Air Temp Water Temp Dewpoint Dewpoint Depression Visibility Wind Speed Wind Dir Waves Ship Positions

Sukran S

Last reported at 2017-May-24 18:48 UTC. Time now 2017-May-28 22:20 UTC.
Position N 46°07' E 030°51'.

Length 108 m; draft 7.2 m.

Type: Cargo ship. MMSI: 271000056.

Date/timePositionNaut miles runAvg speedWind from/ knotsBaromVisibWave heightAir tempDewpointWater temp
2017-May-24 18:48N 46°07' E 030°51'3 9.6
2017-May-24 18:26N 46°10' E 030°52'4 9.4
2017-May-24 18:00N 46°14' E 030°54'5 9.3
2017-May-24 17:25N 46°20' E 030°55'4 9.3
2017-May-24 17:00N 46°24' E 030°55'5 9.2
2017-May-24 16:30N 46°28' E 030°55'5 8.4
2017-May-24 15:56N 46°33' E 030°58'6 8.2
2017-May-24 15:15N 46°35' E 031°05'18 8.5
2017-May-24 13:08N 46°35' E 031°32'1 8.5
2017-May-24 13:00N 46°35' E 031°33'4 8.5
2017-May-24 12:30N 46°36' E 031°39'4 8.8
2017-May-24 12:00N 46°36' E 031°45'4 8.7
2017-May-24 11:30N 46°37' E 031°52'4 8.4
2017-May-24 11:00N 46°40' E 031°56'4 8.7
2017-May-24 10:30N 46°44' E 031°55'4 8.5
2017-May-24 10:00N 46°48' E 031°53'3 6.2
2017-May-24 09:30N 46°50' E 031°57'0 0.1
2017-May-24 08:58N 46°50' E 031°57'0 0.0
2017-May-24 08:30N 46°50' E 031°57'0 0.0
2017-May-24 08:00N 46°50' E 031°57'0 0.0
2017-May-24 07:30N 46°50' E 031°57'0 0.0
2017-May-24 06:58N 46°50' E 031°57'0 0.0
2017-May-24 06:27N 46°50' E 031°57'0 0.0
2017-May-24 06:00N 46°50' E 031°57'0 0.0
2017-May-24 05:24N 46°50' E 031°57'0 0.0
2017-May-24 04:58N 46°50' E 031°57'0 0.0
2017-May-24 04:29N 46°50' E 031°57'0 0.0
2017-May-24 03:58N 46°50' E 031°57'0 0.0
2017-May-24 03:29N 46°50' E 031°57'0 0.0
2017-May-24 02:59N 46°50' E 031°57'0 0.0
2017-May-24 02:27N 46°50' E 031°57'0 0.0
2017-May-24 01:54N 46°50' E 031°57'0 0.0
2017-May-24 01:24N 46°50' E 031°57'0 0.0
2017-May-24 01:00N 46°50' E 031°57'0 0.0
2017-May-24 00:29N 46°50' E 031°57'0 0.0
2017-May-23 23:59N 46°50' E 031°57'0 0.0
2017-May-23 23:28N 46°50' E 031°57'0 0.0
2017-May-23 22:57N 46°50' E 031°57'0 0.0
2017-May-23 22:26N 46°50' E 031°57'0 0.0
2017-May-23 21:56N 46°50' E 031°57'0 0.0
2017-May-23 21:29N 46°50' E 031°57'0 0.0
2017-May-23 20:59N 46°50' E 031°57'0 0.0
2017-May-23 20:28N 46°50' E 031°57'0 0.0
2017-May-23 19:57N 46°50' E 031°57'0 0.0
2017-May-23 19:29N 46°50' E 031°57'0 0.0
2017-May-23 19:00N 46°50' E 031°57'0 0.0
2017-May-23 18:30N 46°50' E 031°57'0 0.0
2017-May-23 17:59N 46°50' E 031°57'0 0.0
2017-May-23 17:29N 46°50' E 031°57'0 0.0
2017-May-23 16:59N 46°50' E 031°57'0 0.0
2017-May-23 16:29N 46°50' E 031°57'0 0.0
2017-May-23 15:55N 46°50' E 031°57'0 0.0
2017-May-23 15:28N 46°50' E 031°57'0 0.0
2017-May-23 14:57N 46°50' E 031°57'0 0.0
2017-May-23 14:26N 46°50' E 031°57'0 0.0
2017-May-23 13:29N 46°50' E 031°57'0 0.0
2017-May-23 12:59N 46°50' E 031°57'0 0.0
2017-May-23 12:29N 46°50' E 031°57'0 0.0
2017-May-23 11:59N 46°50' E 031°57'0 0.0
2017-May-23 11:28N 46°50' E 031°57'0 0.0
2017-May-23 10:59N 46°50' E 031°57'0 0.0
2017-May-23 10:30N 46°50' E 031°57'0 0.0
2017-May-23 09:58N 46°50' E 031°57'0 0.0
2017-May-23 09:28N 46°50' E 031°57'0 0.0
2017-May-23 09:00N 46°50' E 031°57'0 0.0
2017-May-23 08:30N 46°50' E 031°57'0 0.0
2017-May-23 07:58N 46°50' E 031°57'0 0.0
2017-May-23 07:30N 46°50' E 031°57'0 0.0
2017-May-23 07:00N 46°50' E 031°57'0 0.0
2017-May-23 06:27N 46°50' E 031°57'0 0.0
2017-May-23 06:00N 46°50' E 031°57'0 0.0
2017-May-23 05:30N 46°50' E 031°57'0 0.0
2017-May-23 04:53N 46°50' E 031°57'0 0.0
2017-May-23 04:24N 46°50' E 031°57'0 0.0
2017-May-23 03:58N 46°50' E 031°57'0 0.0
2017-May-23 03:30N 46°50' E 031°57'0 0.0
2017-May-23 02:58N 46°50' E 031°57'0 0.0
2017-May-23 02:28N 46°50' E 031°57'0 0.0
2017-May-23 01:59N 46°50' E 031°57'0 0.0
2017-May-23 01:30N 46°50' E 031°57'0 0.0
2017-May-23 00:59N 46°50' E 031°57'0 0.0
2017-May-23 00:26N 46°50' E 031°57'0 0.0
2017-May-22 23:58N 46°50' E 031°57'0 0.0
2017-May-22 23:24N 46°50' E 031°57'0 0.0
2017-May-22 22:56N 46°50' E 031°57'0 0.0
2017-May-22 22:29N 46°50' E 031°57'0 0.0
2017-May-22 21:58N 46°50' E 031°57'0 0.0
2017-May-22 21:29N 46°50' E 031°57'0 0.0
2017-May-22 20:59N 46°50' E 031°57'0 0.0
2017-May-22 20:30N 46°50' E 031°57'0 0.0
2017-May-22 19:56N 46°50' E 031°57'0 0.0
2017-May-22 19:24N 46°50' E 031°57'0 0.0
2017-May-22 18:58N 46°50' E 031°57'0 0.0
2017-May-22 18:30N 46°50' E 031°57'0 0.0
2017-May-22 17:55N 46°50' E 031°57'0 0.0
2017-May-22 17:28N 46°50' E 031°57'0 0.0
2017-May-22 16:57N 46°50' E 031°57'0 0.0
2017-May-22 16:30N 46°50' E 031°57'0 0.0
2017-May-22 15:56N 46°50' E 031°57'0 0.0
2017-May-22 15:29N 46°50' E 031°57'0 0.0
2017-May-22 14:59N 46°50' E 031°57'0 0.0
2017-May-22 14:00N 46°50' E 031°57'0 0.0
2017-May-22 13:29N 46°50' E 031°57'0 0.0
2017-May-22 12:59N 46°50' E 031°57'0 0.0
2017-May-22 12:30N 46°50' E 031°57'0 0.0
2017-May-22 11:57N 46°50' E 031°57'0 0.0
2017-May-22 11:30N 46°50' E 031°57'0 0.0
2017-May-22 11:00N 46°50' E 031°57'0 0.0
2017-May-22 10:30N 46°50' E 031°57'0 0.0
2017-May-22 09:59N 46°50' E 031°57'0 0.0
2017-May-22 09:28N 46°50' E 031°57'0 0.0
2017-May-22 09:00N 46°50' E 031°57'0 0.2
2017-May-22 08:30N 46°50' E 031°57'1 2.8
2017-May-22 08:00N 46°50' E 031°55'4 8.6
2017-May-22 07:30N 46°45' E 031°54'5 9.5
2017-May-22 07:00N 46°41' E 031°56'5 9.8
2017-May-22 06:30N 46°37' E 031°52'510.4
2017-May-22 06:00N 46°36' E 031°44'510.5
2017-May-22 05:30N 46°35' E 031°37'27 9.9
2017-May-22 02:49N 46°32' E 030°59'3 6.4
2017-May-22 02:23N 46°30' E 030°57'3 6.8
2017-May-22 02:00N 46°27' E 030°57'7 8.2
2017-May-22 01:08N 46°21' E 031°02'  

Dump ship's entire track history